createdAt,value
2022-09-23T00:00:04.820Z,12.61
2022-09-23T00:03:07.311Z,12.62
2022-09-23T00:06:12.280Z,12.56
2022-09-23T00:09:16.125Z,12.53
2022-09-23T00:12:19.006Z,12.64
2022-09-23T00:15:22.194Z,12.62
2022-09-23T00:18:24.679Z,12.62
2022-09-23T00:21:27.401Z,12.57
2022-09-23T00:24:32.326Z,12.56
2022-09-23T00:27:35.133Z,12.47
2022-09-23T00:30:37.613Z,12.40
2022-09-23T00:33:41.342Z,12.41
2022-09-23T00:36:44.447Z,12.45
2022-09-23T00:39:48.475Z,12.50
2022-09-23T00:42:51.985Z,12.45
2022-09-23T00:45:54.843Z,12.36
2022-09-23T00:49:01.070Z,12.42
2022-09-23T00:52:10.498Z,12.28
2022-09-23T00:55:18.553Z,12.34
2022-09-23T00:58:24.471Z,12.34
2022-09-23T01:01:27.145Z,12.27
2022-09-23T01:04:30.670Z,12.36
2022-09-23T01:07:33.179Z,12.35
2022-09-23T01:10:47.417Z,12.36
2022-09-23T01:14:00.378Z,12.37
2022-09-23T01:17:09.899Z,12.33
2022-09-23T01:20:49.485Z,12.36
2022-09-23T01:24:19.205Z,12.21
2022-09-23T01:27:41.981Z,12.15
2022-09-23T01:30:51.832Z,12.27
2022-09-23T01:34:02.099Z,12.24
2022-09-23T01:37:11.942Z,12.19
2022-09-23T01:40:21.287Z,12.14
2022-09-23T01:43:28.222Z,12.15
2022-09-23T01:46:36.549Z,12.14
2022-09-23T01:49:44.369Z,12.10
2022-09-23T01:52:48.347Z,11.96
2022-09-23T01:55:57.179Z,12.03
2022-09-23T01:59:06.555Z,11.89
2022-09-23T02:02:15.144Z,11.93
2022-09-23T02:05:23.365Z,11.87
2022-09-23T02:08:30.731Z,11.91
2022-09-23T02:11:36.936Z,12.05
2022-09-23T02:14:44.881Z,12.08
2022-09-23T02:17:52.839Z,11.97
2022-09-23T02:21:00.305Z,11.98
2022-09-23T02:24:09.938Z,12.04
2022-09-23T02:27:21.378Z,11.97
2022-09-23T02:30:29.246Z,11.91
2022-09-23T02:33:37.867Z,12.01
2022-09-23T02:36:46.986Z,11.93
2022-09-23T02:39:58.992Z,11.99
2022-09-23T02:43:07.211Z,11.99
2022-09-23T02:46:10.241Z,12.05
2022-09-23T02:49:19.922Z,12.01
2022-09-23T02:52:23.907Z,11.96
2022-09-23T02:55:30.260Z,11.98
2022-09-23T02:58:33.420Z,12.06
2022-09-23T03:01:46.621Z,12.09
2022-09-23T03:04:59.456Z,11.90
2022-09-23T03:08:18.883Z,11.98
2022-09-23T03:11:21.963Z,11.94
2022-09-23T03:14:35.656Z,11.96
2022-09-23T03:17:44.877Z,11.94
2022-09-23T03:20:53.196Z,12.03
2022-09-23T03:24:00.383Z,11.96
2022-09-23T03:27:06.029Z,11.98
2022-09-23T03:30:10.490Z,12.01
2022-09-23T03:33:16.642Z,12.10
2022-09-23T03:36:43.878Z,11.97
2022-09-23T03:39:52.565Z,12.08
2022-09-23T03:42:57.059Z,12.03
2022-09-23T03:46:01.323Z,12.16
2022-09-23T03:49:11.061Z,12.17
2022-09-23T03:52:15.078Z,11.97
2022-09-23T03:55:19.168Z,12.10
2022-09-23T03:58:21.650Z,12.18
2022-09-23T04:01:24.265Z,12.11
2022-09-23T04:04:27.721Z,12.07
2022-09-23T04:07:31.974Z,12.20
2022-09-23T04:10:34.444Z,12.09
2022-09-23T04:13:36.937Z,12.10
2022-09-23T04:16:39.521Z,12.09
2022-09-23T04:19:42.306Z,11.99
2022-09-23T04:22:46.146Z,11.99
2022-09-23T04:25:49.535Z,11.99
2022-09-23T04:28:52.043Z,11.87
2022-09-23T04:31:55.076Z,11.90
2022-09-23T04:34:57.621Z,11.90
2022-09-23T04:38:01.467Z,11.89
2022-09-23T04:41:03.945Z,11.90
2022-09-23T04:44:06.587Z,11.80
2022-09-23T04:47:09.127Z,11.79
2022-09-23T04:50:11.649Z,11.78
2022-09-23T04:53:17.002Z,11.78
2022-09-23T04:56:21.670Z,11.81
2022-09-23T04:59:24.304Z,11.82
2022-09-23T05:02:28.168Z,11.85
2022-09-23T05:05:31.853Z,11.92
2022-09-23T05:08:35.941Z,11.97
2022-09-23T05:11:38.432Z,12.01
2022-09-23T05:14:40.922Z,11.98
2022-09-23T05:17:43.782Z,11.89
2022-09-23T05:20:46.286Z,12.03
2022-09-23T05:23:52.314Z,12.05
2022-09-23T05:26:55.761Z,11.97
2022-09-23T05:29:58.470Z,12.04
2022-09-23T05:33:02.679Z,12.07
2022-09-23T05:36:05.971Z,12.07
2022-09-23T05:39:09.879Z,12.11
2022-09-23T05:42:12.518Z,12.07
2022-09-23T05:45:15.083Z,12.12
2022-09-23T05:48:17.570Z,12.24
2022-09-23T05:51:21.970Z,12.32
2022-09-23T05:54:25.872Z,12.30
2022-09-23T05:57:28.347Z,12.41
2022-09-23T06:00:30.820Z,12.43
2022-09-23T06:03:33.371Z,12.52
2022-09-23T06:06:38.243Z,12.56
2022-09-23T06:09:42.707Z,12.62
2022-09-23T06:12:45.184Z,12.51
2022-09-23T06:15:47.709Z,12.44
2022-09-23T06:18:50.322Z,12.60
2022-09-23T06:21:52.803Z,12.63
2022-09-23T06:24:56.628Z,12.73
2022-09-23T06:27:59.169Z,12.69
2022-09-23T06:31:03.915Z,12.86
2022-09-23T06:34:11.543Z,12.91
2022-09-23T06:37:20.095Z,12.89
2022-09-23T06:40:24.821Z,12.95
2022-09-23T06:43:27.772Z,12.94
2022-09-23T06:46:31.831Z,13.02
2022-09-23T06:49:34.660Z,12.96
2022-09-23T06:52:37.198Z,12.82
2022-09-23T06:55:41.247Z,12.85
2022-09-23T06:58:43.760Z,12.87
2022-09-23T07:01:47.576Z,12.94
2022-09-23T07:04:51.177Z,12.89
2022-09-23T07:07:54.563Z,12.88
2022-09-23T07:11:00.561Z,12.90
2022-09-23T07:14:03.124Z,12.93
2022-09-23T07:17:05.816Z,12.91
2022-09-23T07:20:08.993Z,12.92
2022-09-23T07:23:11.446Z,12.95
2022-09-23T07:26:16.606Z,13.03
2022-09-23T07:29:19.090Z,12.89
2022-09-23T07:32:23.616Z,12.96
2022-09-23T07:35:28.049Z,13.07
2022-09-23T07:38:31.355Z,13.23
2022-09-23T07:41:35.605Z,13.24
2022-09-23T07:44:38.102Z,13.09
2022-09-23T07:47:40.793Z,13.51
2022-09-23T07:50:43.281Z,13.77
2022-09-23T07:53:48.424Z,13.80
2022-09-23T07:56:52.269Z,14.09
2022-09-23T07:59:54.766Z,13.96
2022-09-23T08:02:57.298Z,14.44
2022-09-23T08:06:08.138Z,13.76
2022-09-23T08:09:11.089Z,14.13
2022-09-23T08:12:17.385Z,14.17
2022-09-23T08:15:19.923Z,14.17
2022-09-23T08:18:22.391Z,14.09
2022-09-23T08:21:24.877Z,14.42
2022-09-23T08:24:30.173Z,14.90
2022-09-23T08:27:33.986Z,15.11
2022-09-23T08:30:36.731Z,15.06
2022-09-23T08:33:39.934Z,15.16
2022-09-23T08:36:42.552Z,15.35
2022-09-23T08:39:45.040Z,15.43
2022-09-23T08:42:49.651Z,15.66
2022-09-23T08:45:53.513Z,15.77
2022-09-23T08:48:56.704Z,15.59
2022-09-23T08:52:03.068Z,15.42
2022-09-23T08:55:07.081Z,16.09
2022-09-23T08:58:28.676Z,16.54
2022-09-23T09:01:40.317Z,16.68
2022-09-23T09:04:45.410Z,16.34
2022-09-23T09:07:47.903Z,16.45
2022-09-23T09:10:54.400Z,16.90
2022-09-23T09:14:04.891Z,17.50
2022-09-23T09:17:10.734Z,17.05
2022-09-23T09:20:23.165Z,17.50
2022-09-23T09:23:33.446Z,17.54
2022-09-23T09:26:36.580Z,18.14
2022-09-23T09:29:43.996Z,18.60
2022-09-23T09:32:49.764Z,18.81
2022-09-23T09:36:07.589Z,18.77
2022-09-23T09:39:13.376Z,18.80
2022-09-23T09:42:21.154Z,18.21
2022-09-23T09:45:57.536Z,18.55
2022-09-23T09:49:06.119Z,19.23
2022-09-23T09:52:14.393Z,18.94
2022-09-23T09:55:26.196Z,19.09
2022-09-23T09:58:31.064Z,21.36
2022-09-23T10:01:36.154Z,21.13
2022-09-23T10:04:39.348Z,20.02
2022-09-23T10:07:41.902Z,19.90
2022-09-23T10:10:54.515Z,20.12
2022-09-23T10:14:12.274Z,21.15
2022-09-23T10:17:21.315Z,20.28
2022-09-23T10:20:23.849Z,19.88
2022-09-23T10:23:29.310Z,20.86
2022-09-23T10:26:34.492Z,20.91
2022-09-23T10:29:39.774Z,21.11
2022-09-23T10:32:46.384Z,20.76
2022-09-23T10:35:56.598Z,21.04
2022-09-23T10:39:15.531Z,22.45
2022-09-23T10:42:40.279Z,22.75
2022-09-23T10:46:06.653Z,22.97
2022-09-23T10:49:40.439Z,23.69
2022-09-23T10:52:55.233Z,23.78
2022-09-23T10:56:11.061Z,23.58
2022-09-23T10:59:34.122Z,23.22
2022-09-23T11:02:56.889Z,22.60
2022-09-23T11:06:13.092Z,22.29
2022-09-23T11:09:28.876Z,22.17
2022-09-23T11:12:41.615Z,21.47
2022-09-23T11:15:55.709Z,21.27
2022-09-23T11:19:15.130Z,21.54
2022-09-23T11:22:37.019Z,21.59
2022-09-23T11:25:50.544Z,20.95
2022-09-23T11:29:15.960Z,21.14
2022-09-23T11:32:39.527Z,20.45
2022-09-23T11:35:47.607Z,20.50
2022-09-23T11:38:53.175Z,20.85
2022-09-23T11:42:00.226Z,20.77
2022-09-23T11:45:09.558Z,20.78
2022-09-23T11:48:17.149Z,20.87
2022-09-23T11:51:25.648Z,20.74
2022-09-23T11:54:35.757Z,20.76
2022-09-23T11:57:49.042Z,20.60
2022-09-23T12:01:01.217Z,20.46
2022-09-23T12:04:19.200Z,20.57
2022-09-23T12:07:28.536Z,20.49
2022-09-23T12:10:41.943Z,20.43
2022-09-23T12:13:51.442Z,19.80
2022-09-23T12:17:21.321Z,19.67
2022-09-23T12:20:41.390Z,19.73
2022-09-23T12:23:59.211Z,19.61
2022-09-23T12:27:08.014Z,19.83
2022-09-23T12:30:17.515Z,19.55
2022-09-23T12:33:24.698Z,19.47
2022-09-23T12:36:33.756Z,19.64
2022-09-23T12:39:38.687Z,19.45
2022-09-23T12:42:46.219Z,19.49
2022-09-23T12:45:49.226Z,19.39
2022-09-23T12:49:04.308Z,19.43
2022-09-23T12:52:25.034Z,19.48
2022-09-23T12:55:51.517Z,19.43
2022-09-23T12:59:11.151Z,19.37
2022-09-23T13:02:28.262Z,19.14
2022-09-23T13:05:48.639Z,19.33
2022-09-23T13:08:51.321Z,19.47
2022-09-23T13:11:58.851Z,19.57
2022-09-23T13:15:06.468Z,19.63
2022-09-23T13:18:45.874Z,19.83
2022-09-23T13:22:08.825Z,19.86
2022-09-23T13:25:20.563Z,19.76
2022-09-23T13:28:33.597Z,19.78
2022-09-23T13:31:37.891Z,19.64
2022-09-23T13:34:44.147Z,19.49
2022-09-23T13:37:48.674Z,19.54
2022-09-23T13:40:51.286Z,19.49
2022-09-23T13:43:58.633Z,19.55
2022-09-23T13:47:03.183Z,19.51
2022-09-23T13:50:06.736Z,19.53
2022-09-23T13:53:12.370Z,19.31
2022-09-23T13:56:16.619Z,19.38
2022-09-23T13:59:25.840Z,19.29
2022-09-23T14:02:29.746Z,19.00
2022-09-23T14:05:36.261Z,19.02
2022-09-23T14:08:40.669Z,19.20
2022-09-23T14:11:43.181Z,19.21
2022-09-23T14:14:46.440Z,19.12
2022-09-23T14:17:54.127Z,19.26
2022-09-23T14:20:56.788Z,19.27
2022-09-23T14:24:13.089Z,19.27
2022-09-23T14:27:18.556Z,19.14
2022-09-23T14:30:21.074Z,19.15
2022-09-23T14:33:27.600Z,18.74
2022-09-23T14:36:54.364Z,18.84
2022-09-23T14:39:57.919Z,18.76
2022-09-23T14:43:04.462Z,18.71
2022-09-23T14:46:07.066Z,18.82
2022-09-23T14:49:17.297Z,18.74
2022-09-23T14:52:19.801Z,18.84
2022-09-23T14:55:22.753Z,18.87
2022-09-23T14:58:29.419Z,18.82
2022-09-23T15:01:38.597Z,18.72
2022-09-23T15:04:42.600Z,18.64
2022-09-23T15:07:49.523Z,18.41
2022-09-23T15:10:52.127Z,18.48
2022-09-23T15:13:54.630Z,18.54
2022-09-23T15:16:57.146Z,18.41
2022-09-23T15:20:04.388Z,18.29
2022-09-23T15:23:07.155Z,18.43
2022-09-23T15:26:13.526Z,18.25
2022-09-23T15:29:16.002Z,18.18
2022-09-23T15:32:19.546Z,18.28
2022-09-23T15:35:26.464Z,18.26
2022-09-23T15:38:28.999Z,18.24
2022-09-23T15:41:33.029Z,18.34
2022-09-23T15:44:36.245Z,18.25
2022-09-23T15:47:38.755Z,18.03
2022-09-23T15:50:45.440Z,18.18
2022-09-23T15:53:47.941Z,18.04
2022-09-23T15:56:50.464Z,18.04
2022-09-23T15:59:58.126Z,17.85
2022-09-23T16:03:01.024Z,17.98
2022-09-23T16:06:06.127Z,18.08
2022-09-23T16:09:08.944Z,18.00
2022-09-23T16:12:12.899Z,17.89
2022-09-23T16:15:18.956Z,17.76
2022-09-23T16:18:21.445Z,17.81
2022-09-23T16:21:27.300Z,17.73
2022-09-23T16:24:30.821Z,17.75
2022-09-23T16:27:33.993Z,17.78
2022-09-23T16:30:37.654Z,17.74
2022-09-23T16:33:40.139Z,17.65
2022-09-23T16:36:44.447Z,17.62
2022-09-23T16:39:49.345Z,17.62
2022-09-23T16:42:54.811Z,17.52
2022-09-23T16:45:57.706Z,17.43
2022-09-23T16:49:01.015Z,17.40
2022-09-23T16:52:05.359Z,17.37
2022-09-23T16:55:10.289Z,17.31
2022-09-23T16:58:12.815Z,17.26
2022-09-23T17:01:42.448Z,17.21
2022-09-23T17:04:45.155Z,17.13
2022-09-23T17:07:48.973Z,17.04
2022-09-23T17:10:58.541Z,16.93
2022-09-23T17:14:01.189Z,16.85
2022-09-23T17:17:03.701Z,16.91
2022-09-23T17:20:07.363Z,16.76
2022-09-23T17:23:11.237Z,16.77
2022-09-23T17:26:15.031Z,16.71
2022-09-23T17:29:17.517Z,16.53
2022-09-23T17:32:20.855Z,16.50
2022-09-23T17:35:23.370Z,16.43
2022-09-23T17:38:29.327Z,16.37
2022-09-23T17:41:32.111Z,16.27
2022-09-23T17:44:35.276Z,16.16
2022-09-23T17:47:41.413Z,16.07
2022-09-23T17:50:44.396Z,15.91
2022-09-23T17:53:49.665Z,15.83
2022-09-23T17:56:52.151Z,15.69
2022-09-23T17:59:55.986Z,15.74
2022-09-23T18:02:58.467Z,15.58
2022-09-23T18:06:09.699Z,15.53
2022-09-23T18:09:13.971Z,15.46
2022-09-23T18:12:16.821Z,15.45
2022-09-23T18:15:20.194Z,15.41
2022-09-23T18:18:22.785Z,15.35
2022-09-23T18:21:27.177Z,15.40
2022-09-23T18:24:33.395Z,15.39
2022-09-23T18:27:36.209Z,15.37
2022-09-23T18:30:40.068Z,15.27
2022-09-23T18:33:42.771Z,15.26
2022-09-23T18:36:46.008Z,15.19
2022-09-23T18:39:49.896Z,15.20
2022-09-23T18:42:52.365Z,15.27
2022-09-23T18:45:59.438Z,15.22
2022-09-23T18:49:19.516Z,15.20
2022-09-23T18:52:22.008Z,15.19
2022-09-23T18:55:26.067Z,15.36
2022-09-23T18:58:28.564Z,15.27
2022-09-23T19:01:31.271Z,15.33
2022-09-23T19:04:33.863Z,15.49
2022-09-23T19:07:36.355Z,15.45
2022-09-23T19:10:40.165Z,15.52
2022-09-23T19:13:42.964Z,15.53
2022-09-23T19:16:45.447Z,15.56
2022-09-23T19:19:47.907Z,15.58
2022-09-23T19:22:50.366Z,15.60
2022-09-23T19:25:54.545Z,15.60
2022-09-23T19:28:58.356Z,15.56
2022-09-23T19:32:00.929Z,15.60
2022-09-23T19:35:03.438Z,15.58
2022-09-23T19:38:06.762Z,15.66
2022-09-23T19:41:11.164Z,15.64
2022-09-23T19:44:14.042Z,15.63
2022-09-23T19:47:17.400Z,15.70
2022-09-23T19:50:21.669Z,15.65
2022-09-23T19:53:28.036Z,15.67
2022-09-23T19:56:33.073Z,15.63
2022-09-23T19:59:35.568Z,15.56
2022-09-23T20:02:38.058Z,15.64
2022-09-23T20:05:40.794Z,15.62
2022-09-23T20:08:44.070Z,15.63
2022-09-23T20:11:47.909Z,15.62
2022-09-23T20:14:51.634Z,15.59
2022-09-23T20:17:54.525Z,15.56
2022-09-23T20:20:56.997Z,15.54
2022-09-23T20:24:00.025Z,15.53
2022-09-23T20:27:09.530Z,15.61
2022-09-23T20:30:12.423Z,15.60
2022-09-23T20:33:15.135Z,15.55
2022-09-23T20:36:17.787Z,15.44
2022-09-23T20:39:20.266Z,15.40
2022-09-23T20:42:24.233Z,15.32
2022-09-23T20:45:26.737Z,15.25
2022-09-23T20:48:30.449Z,15.23
2022-09-23T20:51:33.782Z,15.14
2022-09-23T20:54:38.790Z,15.22
2022-09-23T20:57:44.232Z,15.31
2022-09-23T21:00:47.001Z,15.23
2022-09-23T21:03:52.390Z,15.23
2022-09-23T21:06:57.373Z,15.18
2022-09-23T21:10:01.805Z,15.19
2022-09-23T21:13:06.965Z,15.26
2022-09-23T21:16:12.033Z,15.26
2022-09-23T21:19:14.657Z,15.30
2022-09-23T21:22:17.753Z,15.23
2022-09-23T21:25:29.112Z,15.27
2022-09-23T21:28:35.430Z,15.18
2022-09-23T21:31:38.724Z,15.11
2022-09-23T21:34:41.285Z,15.08
2022-09-23T21:37:43.756Z,15.05
2022-09-23T21:40:58.499Z,15.04
2022-09-23T21:44:04.366Z,15.09
2022-09-23T21:47:07.088Z,15.15
2022-09-23T21:50:10.228Z,15.18
2022-09-23T21:53:12.717Z,15.24
2022-09-23T21:56:20.654Z,15.24
2022-09-23T21:59:24.995Z,15.15
2022-09-23T22:02:27.647Z,15.15
2022-09-23T22:05:30.174Z,15.10
2022-09-23T22:08:36.705Z,15.09
2022-09-23T22:11:58.347Z,15.16
2022-09-23T22:15:02.187Z,15.10
2022-09-23T22:18:06.392Z,15.13
2022-09-23T22:21:08.852Z,15.16
2022-09-23T22:24:12.880Z,15.01
2022-09-23T22:27:18.345Z,14.87
2022-09-23T22:30:39.710Z,14.82
2022-09-23T22:33:42.187Z,14.81
2022-09-23T22:36:44.674Z,14.75
2022-09-23T22:39:47.307Z,14.78
2022-09-23T22:42:49.825Z,14.80
2022-09-23T22:45:53.699Z,14.86
2022-09-23T22:48:56.181Z,14.90
2022-09-23T22:51:59.351Z,14.80
2022-09-23T22:55:01.872Z,14.83
2022-09-23T22:58:27.587Z,14.77
2022-09-23T23:01:29.990Z,14.88
2022-09-23T23:04:33.797Z,14.80
2022-09-23T23:07:36.480Z,14.81
2022-09-23T23:10:38.971Z,14.74
2022-09-23T23:13:42.394Z,14.72
2022-09-23T23:16:46.905Z,14.66
2022-09-23T23:19:50.503Z,14.83
2022-09-23T23:22:53.006Z,14.89
2022-09-23T23:25:55.475Z,14.85
2022-09-23T23:28:58.705Z,14.87
2022-09-23T23:32:02.957Z,14.75
2022-09-23T23:35:06.221Z,14.73
2022-09-23T23:38:12.434Z,14.69
2022-09-23T23:41:16.702Z,14.66
2022-09-23T23:44:19.192Z,14.60
2022-09-23T23:47:23.289Z,14.55
2022-09-23T23:50:26.394Z,14.59
2022-09-23T23:53:32.289Z,14.54
2022-09-23T23:56:34.799Z,14.59
2022-09-23T23:59:37.606Z,14.68
